• Join FlightAware (Why Join?)
  • Login
  • US Flag 
01:03AM EST


 

Airport Tracker/Info


-or-


 

Live Flight TrackerFlight Track Log ✈ CUA5905 ✈ 06-May-2014 ✈ ZBNY / NAY - ZSLG / LYG

Flight Track Log - Related Links

Times and Time Zones

All times are in EDT time to prevent confusion due to time zone crossing. See the CUA5905 flight status page for this flight to view local times or setup timezone preferences in your user account.

Time Position Orientation Groundspeed Altitude Reporting Facility
EDT Latitude Longitude Course Direction KTS MPH feet Rate Location/Type
12:54AM 39.0275 116.7692 158° South  Level Estimated
12:55AM 38.9439 116.8112 159° South  Level Estimated
12:56AM 38.8603 116.8532 159° South  Level Estimated
12:57AM 38.7766 116.8950 159° South  Level Estimated
12:58AM 38.6930 116.9367 159° South  Level Estimated
12:59AM 38.6093 116.9784 159° South  Level Estimated
01:00AM 38.5256 117.0199 159° South  Level Estimated
01:01AM 38.4419 117.0613 159° South  Level Estimated
01:02AM 38.3581 117.1027 159° South  Level Estimated
01:03AM 38.2744 117.1439 159° South  Level Estimated
01:04AM 38.1906 117.1851 159° South  Level Estimated
01:05AM 38.1069 117.2262 159° South  Level Estimated
01:06AM 38.0231 117.2671 159° South  Level Estimated
01:07AM 37.9393 117.3080 159° South  Level Estimated
01:08AM 37.8555 117.3488 159° South  Level Estimated
01:09AM 37.7716 117.3895 159° South  Level Estimated
01:10AM 37.6878 117.4301 159° South  Level Estimated
01:11AM 37.6040 117.4706 159° South  Level Estimated
01:12AM 37.5201 117.5110 159° South  Level Estimated
01:13AM 37.4362 117.5513 159° South  Level Estimated
01:14AM 37.3523 117.5915 159° South  Level Estimated
01:15AM 37.2684 117.6317 159° South  Level Estimated
01:16AM 37.1845 117.6717 159° South  Level Estimated
01:17AM 37.1006 117.7117 159° South  Level Estimated
01:18AM 37.0166 117.7516 159° South  Level Estimated
01:19AM 36.9326 117.7914 159° South  Level Estimated
01:20AM 36.8487 117.8311 159° South  Level Estimated
01:21AM 36.7647 117.8707 159° South  Level Estimated
01:22AM 36.6807 117.9102 159° South  Level Estimated
01:23AM 36.5967 117.9496 159° South  Level Estimated
01:24AM 36.5126 117.9890 159° South  Level Estimated
01:25AM 36.4286 118.0283 159° South  Level Estimated
01:26AM 36.3445 118.0675 159° South  Level Estimated
01:27AM 36.2605 118.1066 159° South  Level Estimated
01:28AM 36.1764 118.1456 159° South  Level Estimated
01:29AM 36.0923 118.1845 159° South  Level Estimated
01:30AM 36.0082 118.2233 160° South  Level Estimated
01:31AM 35.9241 118.2621 160° South  Level Estimated
01:32AM 35.8400 118.3008 160° South  Level Estimated
01:33AM 35.7558 118.3394 160° South  Level Estimated
01:34AM 35.6717 118.3779 160° South  Level Estimated
01:35AM 35.5949 118.4130 160° South  Level Estimated
01:36AM 35.5182 118.4480 160° South  Level Estimated
01:37AM 35.4414 118.4829 160° South  Level Estimated
01:38AM 35.3646 118.5177 160° South  Level Estimated
01:39AM 35.2879 118.5525 160° South  Level Estimated
01:40AM 35.2111 118.5872 160° South  Level Estimated
01:41AM 35.1343 118.6219 160° South  Level Estimated
01:42AM 35.0575 118.6564 160° South  Level Estimated
01:43AM 34.9807 118.6910 160° South  Level Estimated
01:44AM 34.9038 118.7254 160° South  Level Estimated
01:45AM 34.8270 118.7598 160° South  Level Estimated
01:46AM 34.7501 118.7942 160° South  Level Estimated
01:47AM 34.6733 118.8284 160° South  Level Estimated
01:48AM 34.5964 118.8626 160° South  Level Estimated
01:49AM 34.5717 118.8736 160° South  Level Estimated
01:50AM 34.5717 118.8736 North  Level Estimated
01:51AM 34.5717 118.8736 North  Level Estimated
01:52AM 34.5717 118.8736 North  Level Estimated
01:53AM 34.5717 118.8736 North  Level Estimated
01:54AM 34.5717 118.8736 North  Level Estimated
01:55AM 34.5717 118.8736 North  Level Estimated
01:56AM 34.5717 118.8736 North  Level Estimated
01:57AM 34.5717 118.8736 North  Level Estimated